Portada
METAR-TAF:

METAR-TAF

Aeroports :

Tongatapu, Tonga

latitud: 21-14S, longitud: 175-09W, altitud: 38 m

Observació

L'informe es va fer fa 1 hora i 3 minuts, a les 01:00 UTC
Vent 9 kt del Est/Sud-Est
Temperatura 24°C
Humitat 57%
Pressió 1019 hPa
Visibilitat 10 km o més
Escasses núvols a una alçada de 1700 ft
Núvols disperses a una alçada de 4000 ft

METAR: NFTF 190100Z 12009KT 9999 FEW017 SCT040 24/15 Q1019 RMK DRY AIR 57?

Hora: 15:03 (02:03 UTC)

Pronòstic

L'informe es va fer fa 3 hores i 9 minuts, a les 22:54 UTC
Pronòstic vàlid del 19 a les 00 UTC al 19 a les 24 UTC
Vent 7 kt del Est/Sud-Est
Visibilitat 10 km o més
Núvols disperses a una alçada de 1700 ft
Cel ennuvolat a una alçada de 4000 ft

TAF: NFTF 182254Z 1900/1924 12007KT 9999 SCT017 BKN040

Observacions i pronòstics meteorològics de més de 4000 aeroports (METAR i TAF).

Les estacions disponibles són els punts grocs i vermells al mapa.

Posi el ratolí al punt desitjat per veure el nom de l'estació.

Feu clic per veure les observacions i els pronòstics meteorològics.

Per canviar el mapa: feu clic els botons verds amb una creu de color negre per apropar; al botó verd amb un guió per allunyar la imatge; o en les fletxes verdes per a mapes adjacents.


METAR-TAF: